メインページ
METAR-TAF:

METAR-TAF

空港 :

シント・マールテン, オランダ領アンティル

プリンセス・ジュリアナ国際空港

緯度: 18-03N, 経度: 063-07W, 海抜: 4m

現時点の気象観測

当レポートは57分前の11:00(UTC)に作成
の風 9kt
気温 26°C
湿度 70%
気圧 1016 hPa
視程10km以上
高度2000ftの雲はほとんどない
高度4000ftの千切れ雲あり

METAR: TNCM 231100Z 08009KT 9999 FEW020 BKN040 26/20 Q1015 A2999 NOSIG

時間: 07:57 (11:57 UTC)

予報

当レポートは6時間14分前の05:43(UTC)に作成
予報は23日の 06時(UTC)から 24日の 06時(UTC)まで有効
の風 9kt
視程: 10km
高度2400ftの雲はほとんどない
23日の 1400時(UTC)から
東/南東の風 16kt
視程: 10km
高度2200ftの雲は散在している
近辺でにわか雨
23日の 2300時(UTC)から
の風 8kt
視程: 10km
高度2000ftの雲は散在している
高度4000ftの千切れ雲あり
近辺でにわか雨

TAF: TNCM 230543Z 2306/2406 08009KT P6SM FEW024 FM231400 11016KT P6SM VCSH SCT022 FM232300 09008KT P6SM VCSH SCT020 BKN040

4,000以上の空港の気象観測と天気予報(METAR報とTAF報)

利用可能な観測所は地図上に黄色い丸と赤い丸で示す。

丸の上にカーソルを重ねると観測所名を参照できる。

次にクリックすると気象観測と天気予報を参照できる。

マップの切り替え:黒色「×」印の緑ボタンをクリックして拡大、「-」印の緑ボタンをクリックして縮小、緑色の三角印をクリックして隣りの地図に切り替え


METAR-TAF: